createdAt,value
2023-03-06T00:02:00.644Z,4.83
2023-03-06T00:04:28.188Z,4.80
2023-03-06T00:06:55.769Z,5.20
2023-03-06T00:09:23.285Z,5.40
2023-03-06T00:11:50.823Z,6.10
2023-03-06T00:14:19.142Z,5.83
2023-03-06T00:16:46.678Z,4.40
2023-03-06T00:19:14.219Z,5.27
2023-03-06T00:21:42.543Z,5.40
2023-03-06T00:24:10.081Z,4.90
2023-03-06T00:26:37.615Z,5.20
2023-03-06T00:29:05.159Z,5.00
2023-03-06T00:31:33.480Z,6.00
2023-03-06T00:34:00.996Z,5.53
2023-03-06T00:36:29.395Z,4.97
2023-03-06T00:38:56.936Z,5.60
2023-03-06T00:41:25.229Z,5.97
2023-03-06T00:43:52.792Z,5.33
2023-03-06T00:46:20.327Z,5.03
2023-03-06T00:48:48.610Z,5.03
2023-03-06T00:51:16.188Z,5.70
2023-03-06T00:53:43.713Z,5.47
2023-03-06T00:56:11.222Z,5.30
2023-03-06T00:58:38.787Z,5.60
2023-03-06T01:01:06.381Z,5.60
2023-03-06T01:03:33.856Z,6.20
2023-03-06T01:06:02.177Z,5.27
2023-03-06T01:08:29.717Z,5.50
2023-03-06T01:10:57.253Z,5.40
2023-03-06T01:13:25.574Z,5.60
2023-03-06T01:15:53.107Z,5.97
2023-03-06T01:18:20.671Z,5.83
2023-03-06T01:20:48.242Z,6.30
2023-03-06T01:23:15.748Z,5.60
2023-03-06T01:25:43.303Z,6.30
2023-03-06T01:28:10.855Z,6.37
2023-03-06T01:30:38.392Z,6.10
2023-03-06T01:33:05.921Z,6.00
2023-03-06T01:35:33.502Z,8.10
2023-03-06T01:38:01.120Z,7.90
2023-03-06T01:40:29.416Z,6.57
2023-03-06T01:42:56.964Z,6.60
2023-03-06T01:45:24.496Z,6.53
2023-03-06T01:47:52.024Z,7.07
2023-03-06T01:50:19.602Z,7.40
2023-03-06T01:52:52.695Z,9.50
2023-03-06T01:55:25.677Z,7.63
2023-03-06T01:57:53.211Z,9.27
2023-03-06T02:00:23.722Z,7.63
2023-03-06T02:02:57.265Z,7.77
2023-03-06T02:05:24.776Z,10.17
2023-03-06T02:07:52.310Z,12.10
2023-03-06T02:10:20.631Z,10.40
2023-03-06T02:12:48.149Z,9.57
2023-03-06T02:15:16.461Z,13.02
2023-03-06T02:17:44.323Z,11.43
2023-03-06T02:20:26.932Z,7.93
2023-03-06T02:23:15.534Z,7.33
2023-03-06T02:25:45.771Z,8.97
2023-03-06T02:28:14.063Z,10.93
2023-03-06T02:30:41.662Z,9.83
2023-03-06T02:33:09.183Z,7.47
2023-03-06T02:35:36.773Z,8.20
2023-03-06T02:38:05.049Z,7.80
2023-03-06T02:40:32.573Z,7.73
2023-03-06T02:43:00.865Z,6.30
2023-03-06T02:45:43.555Z,7.20
2023-03-06T02:48:11.026Z,6.53
2023-03-06T02:50:38.549Z,6.47
2023-03-06T02:53:06.102Z,5.87
2023-03-06T02:55:33.637Z,6.47
2023-03-06T02:58:01.172Z,6.10
2023-03-06T03:00:28.736Z,6.57
2023-03-06T03:02:56.277Z,6.50
2023-03-06T03:05:23.797Z,6.60
2023-03-06T03:07:51.346Z,6.60
2023-03-06T03:10:18.889Z,6.57
2023-03-06T03:12:46.432Z,6.17
2023-03-06T03:15:14.246Z,7.03
2023-03-06T03:17:42.558Z,6.70
2023-03-06T03:20:10.331Z,6.60
2023-03-06T03:22:37.896Z,6.27
2023-03-06T03:25:05.558Z,5.93
2023-03-06T03:27:33.075Z,6.43
2023-03-06T03:30:01.399Z,6.77
2023-03-06T03:32:28.966Z,6.40
2023-03-06T03:34:57.227Z,6.90
2023-03-06T03:37:24.806Z,7.30
2023-03-06T03:39:52.332Z,6.77
2023-03-06T03:42:19.876Z,6.83
2023-03-06T03:44:47.467Z,6.67
2023-03-06T03:47:14.967Z,7.33
2023-03-06T03:49:42.501Z,7.33
2023-03-06T03:52:10.064Z,9.00
2023-03-06T03:54:37.598Z,7.70
2023-03-06T03:57:05.138Z,7.53
2023-03-06T03:59:33.830Z,7.47
2023-03-06T04:02:01.368Z,7.57
2023-03-06T04:04:29.667Z,7.07
2023-03-06T04:06:58.344Z,7.23
2023-03-06T04:09:25.873Z,7.37
2023-03-06T04:11:53.406Z,7.80
2023-03-06T04:14:21.000Z,7.70
2023-03-06T04:16:48.513Z,7.50
2023-03-06T04:19:16.058Z,10.07
2023-03-06T04:21:43.592Z,10.27
2023-03-06T04:24:11.897Z,7.97
2023-03-06T04:26:39.430Z,7.63
2023-03-06T04:29:06.995Z,8.30
2023-03-06T04:31:34.674Z,8.57
2023-03-06T04:34:02.846Z,8.57
2023-03-06T04:36:33.120Z,8.23
2023-03-06T04:39:00.687Z,8.10
2023-03-06T04:41:28.176Z,7.97
2023-03-06T04:43:56.035Z,7.77
2023-03-06T04:46:23.574Z,7.70
2023-03-06T04:48:51.890Z,8.30
2023-03-06T04:51:19.435Z,7.97
2023-03-06T04:53:46.953Z,8.03
2023-03-06T04:56:14.488Z,8.57
2023-03-06T04:58:42.053Z,8.37
2023-03-06T05:01:09.671Z,8.30
2023-03-06T05:03:37.118Z,8.57
2023-03-06T05:06:04.682Z,9.07
2023-03-06T05:08:32.220Z,9.03
2023-03-06T05:11:00.527Z,9.07
2023-03-06T05:13:28.083Z,8.57
2023-03-06T05:15:55.605Z,8.57
2023-03-06T05:18:23.909Z,8.77
2023-03-06T05:20:51.474Z,8.97
2023-03-06T05:23:19.009Z,9.43
2023-03-06T05:25:47.349Z,9.63
2023-03-06T05:28:14.888Z,10.10
2023-03-06T05:30:42.419Z,9.57
2023-03-06T05:33:09.958Z,9.77
2023-03-06T05:35:38.349Z,11.27
2023-03-06T05:38:07.438Z,9.83
2023-03-06T05:40:35.729Z,9.13
2023-03-06T05:43:03.354Z,10.53
2023-03-06T05:45:30.899Z,10.10
2023-03-06T05:47:58.430Z,10.33
2023-03-06T05:50:26.028Z,9.53
2023-03-06T05:52:53.564Z,9.30
2023-03-06T05:55:21.110Z,12.30
2023-03-06T05:57:48.691Z,10.60
2023-03-06T06:00:16.271Z,9.43
2023-03-06T06:02:46.475Z,10.30
2023-03-06T06:05:14.040Z,12.30
2023-03-06T06:07:41.577Z,12.73
2023-03-06T06:10:09.331Z,10.17
2023-03-06T06:12:37.203Z,13.17
2023-03-06T06:15:04.882Z,10.13
2023-03-06T06:17:32.419Z,10.97
2023-03-06T06:19:59.997Z,10.17
2023-03-06T06:22:27.514Z,10.40
2023-03-06T06:24:55.044Z,13.07
2023-03-06T06:27:23.368Z,10.57
2023-03-06T06:29:50.901Z,10.93
2023-03-06T06:32:18.455Z,9.97
2023-03-06T06:34:46.032Z,14.05
2023-03-06T06:37:13.554Z,11.63
2023-03-06T06:39:41.928Z,10.40
2023-03-06T06:42:29.082Z,10.53
2023-03-06T06:44:37.024Z,10.37
2023-03-06T06:49:32.123Z,11.07
2023-03-06T06:51:59.660Z,10.73
2023-03-06T06:54:27.192Z,11.30
2023-03-06T06:56:54.766Z,11.13
2023-03-06T06:59:25.860Z,10.70
2023-03-06T07:01:53.558Z,11.00
2023-03-06T07:04:21.709Z,10.70
2023-03-06T07:06:49.265Z,10.60
2023-03-06T07:09:16.780Z,10.47
2023-03-06T07:11:44.385Z,10.07
2023-03-06T07:14:11.914Z,10.87
2023-03-06T07:16:39.433Z,10.13
2023-03-06T07:19:07.788Z,12.87
2023-03-06T07:21:35.298Z,14.33
2023-03-06T07:24:02.830Z,11.77
2023-03-06T07:26:32.092Z,11.97
2023-03-06T07:28:57.999Z,11.70
2023-03-06T07:31:25.595Z,11.20
2023-03-06T07:33:53.114Z,12.23
2023-03-06T07:36:20.657Z,12.67
2023-03-06T07:38:48.201Z,12.30
2023-03-06T07:41:15.819Z,11.03
2023-03-06T07:43:43.374Z,12.97
2023-03-06T07:46:11.010Z,11.03
2023-03-06T07:48:39.272Z,15.13
2023-03-06T07:51:06.818Z,12.43
2023-03-06T07:53:34.362Z,13.70
2023-03-06T07:56:02.725Z,11.20
2023-03-06T07:58:30.251Z,12.07
2023-03-06T08:00:57.764Z,12.77
2023-03-06T08:03:26.500Z,12.17
2023-03-06T08:05:54.005Z,12.13
2023-03-06T08:08:22.328Z,13.57
2023-03-06T08:10:49.889Z,12.33
2023-03-06T08:13:17.412Z,12.37
2023-03-06T08:15:44.937Z,12.23
2023-03-06T08:18:12.510Z,12.60
2023-03-06T08:20:40.870Z,11.80
2023-03-06T08:23:08.390Z,12.13
2023-03-06T08:25:35.971Z,12.07
2023-03-06T08:28:03.502Z,12.10
2023-03-06T08:30:31.029Z,12.97
2023-03-06T08:32:58.613Z,12.53
2023-03-06T08:35:26.158Z,12.13
2023-03-06T08:37:53.691Z,12.33
2023-03-06T08:40:22.043Z,11.77
2023-03-06T08:42:49.567Z,12.70
2023-03-06T08:45:17.154Z,12.60
2023-03-06T08:47:45.421Z,13.07
2023-03-06T08:50:12.967Z,11.90
2023-03-06T08:52:40.495Z,12.50
2023-03-06T08:55:08.301Z,11.33
2023-03-06T08:57:35.850Z,13.30
2023-03-06T09:00:03.380Z,12.00
2023-03-06T09:02:30.974Z,12.83
2023-03-06T09:04:58.498Z,12.97
2023-03-06T09:07:26.042Z,12.07
2023-03-06T09:09:57.123Z,12.30
2023-03-06T09:12:24.646Z,13.20
2023-03-06T09:14:52.960Z,12.93
2023-03-06T09:17:20.553Z,12.90
2023-03-06T09:19:48.080Z,12.57
2023-03-06T09:22:15.615Z,12.97
2023-03-06T09:24:43.932Z,12.70
2023-03-06T09:27:11.445Z,12.50
2023-03-06T09:29:38.985Z,12.63
2023-03-06T09:32:06.624Z,12.33
2023-03-06T09:34:34.109Z,16.08
2023-03-06T09:37:01.633Z,13.20
2023-03-06T09:39:29.238Z,13.27
2023-03-06T09:41:57.579Z,11.63
2023-03-06T09:44:34.301Z,12.53
2023-03-06T09:47:19.546Z,12.27
2023-03-06T09:49:58.879Z,17.23
2023-03-06T09:52:31.865Z,13.47
2023-03-06T09:55:03.037Z,13.13
2023-03-06T09:57:37.201Z,12.23
2023-03-06T10:00:07.731Z,12.03
2023-03-06T10:02:50.013Z,12.70
2023-03-06T10:05:26.127Z,11.93
2023-03-06T10:08:03.346Z,11.80
2023-03-06T10:10:33.879Z,11.90
2023-03-06T10:13:01.413Z,12.40
2023-03-06T10:15:34.722Z,13.23
2023-03-06T10:18:02.295Z,11.43
2023-03-06T10:20:29.828Z,13.27
2023-03-06T10:23:03.091Z,12.77
2023-03-06T10:25:30.029Z,12.17
2023-03-06T10:27:57.556Z,15.43
2023-03-06T10:30:49.804Z,12.67
2023-03-06T10:33:22.765Z,12.03
2023-03-06T10:35:50.368Z,12.47
2023-03-06T10:38:32.921Z,12.83
2023-03-06T10:41:06.654Z,12.57
2023-03-06T10:43:36.405Z,12.87
2023-03-06T10:46:01.812Z,12.47
2023-03-06T10:48:29.319Z,12.50
2023-03-06T10:51:19.173Z,15.48
2023-03-06T10:53:48.185Z,13.53
2023-03-06T10:56:15.720Z,11.60
2023-03-06T10:58:44.075Z,12.03
2023-03-06T11:01:20.622Z,12.13
2023-03-06T11:03:48.924Z,15.52
2023-03-06T11:06:16.457Z,12.57
2023-03-06T11:08:43.983Z,12.93
2023-03-06T11:11:14.497Z,13.50
2023-03-06T11:13:41.756Z,11.93
2023-03-06T11:16:27.760Z,10.13
2023-03-06T11:18:55.263Z,11.10
2023-03-06T11:21:25.741Z,11.47
2023-03-06T11:23:53.326Z,11.60
2023-03-06T11:26:26.499Z,12.43
2023-03-06T11:28:59.950Z,10.90
2023-03-06T11:31:29.982Z,11.93
2023-03-06T11:34:12.328Z,11.67
2023-03-06T11:36:48.757Z,12.00
2023-03-06T11:39:19.909Z,12.03
2023-03-06T11:42:00.189Z,12.93
2023-03-06T11:44:45.952Z,12.53
2023-03-06T11:47:25.709Z,12.97
2023-03-06T11:50:23.407Z,12.07
2023-03-06T11:52:53.920Z,12.77
2023-03-06T11:55:21.430Z,11.33
2023-03-06T11:57:56.406Z,12.67
2023-03-06T12:01:00.978Z,11.87
2023-03-06T12:03:37.822Z,13.00
2023-03-06T12:06:05.359Z,14.43
2023-03-06T12:08:50.669Z,11.83
2023-03-06T12:11:24.088Z,12.73
2023-03-06T12:14:12.905Z,14.23
2023-03-06T12:16:49.419Z,12.10
2023-03-06T12:19:53.516Z,19.33
2023-03-06T12:22:39.675Z,13.17
2023-03-06T12:25:07.243Z,11.90
2023-03-06T12:27:37.279Z,12.50
2023-03-06T12:30:23.097Z,11.70
2023-03-06T12:33:03.402Z,12.27
2023-03-06T12:35:42.717Z,11.90
2023-03-06T12:38:28.015Z,11.57
2023-03-06T12:41:07.226Z,14.32
2023-03-06T12:43:49.915Z,11.97
2023-03-06T12:46:27.195Z,12.90
2023-03-06T12:49:06.682Z,11.73
2023-03-06T12:51:34.264Z,11.63
2023-03-06T12:54:01.816Z,12.87
2023-03-06T12:56:29.341Z,12.97
2023-03-06T12:58:56.929Z,11.70
2023-03-06T13:01:54.862Z,13.23
2023-03-06T13:04:37.288Z,12.83
2023-03-06T13:07:13.472Z,12.87
2023-03-06T13:09:56.203Z,13.07
2023-03-06T13:12:32.529Z,12.63
2023-03-06T13:15:00.126Z,15.10
2023-03-06T13:17:27.677Z,13.60
2023-03-06T13:20:13.753Z,12.83
2023-03-06T13:22:44.584Z,11.73
2023-03-06T13:25:18.935Z,12.60
2023-03-06T13:27:46.458Z,11.20
2023-03-06T13:30:29.077Z,12.17
2023-03-06T13:32:56.618Z,12.53
2023-03-06T13:35:30.210Z,12.43
2023-03-06T13:37:58.841Z,12.27
2023-03-06T13:40:26.351Z,12.47
2023-03-06T13:43:03.175Z,12.63
2023-03-06T13:45:30.729Z,11.47
2023-03-06T13:50:41.552Z,13.03
2023-03-06T13:53:36.237Z,16.93
2023-03-06T13:56:15.830Z,17.10
2023-03-06T13:59:14.341Z,14.75
2023-03-06T14:01:53.523Z,12.50
2023-03-06T14:04:38.789Z,12.97
2023-03-06T14:07:25.863Z,11.90
2023-03-06T14:10:02.353Z,12.03
2023-03-06T14:12:32.608Z,10.67
2023-03-06T14:15:03.060Z,11.10
2023-03-06T14:17:33.300Z,11.00
2023-03-06T14:20:13.649Z,11.60
2023-03-06T14:22:41.178Z,10.07
2023-03-06T14:25:17.663Z,10.30
2023-03-06T14:27:48.200Z,10.60
2023-03-06T14:30:15.749Z,10.43
2023-03-06T14:32:43.386Z,10.30
2023-03-06T14:35:22.680Z,10.93
2023-03-06T14:37:50.195Z,12.80
2023-03-06T14:40:17.725Z,10.80
2023-03-06T14:42:45.288Z,10.70
2023-03-06T14:45:16.563Z,10.27
2023-03-06T14:47:44.084Z,10.87
2023-03-06T14:50:26.711Z,10.77
2023-03-06T14:52:59.936Z,10.27
2023-03-06T14:55:27.552Z,13.30
2023-03-06T14:57:57.736Z,11.77
2023-03-06T15:00:25.300Z,13.32
2023-03-06T15:02:52.838Z,11.03
2023-03-06T15:05:26.797Z,10.57
2023-03-06T15:07:54.317Z,10.33
2023-03-06T15:10:24.664Z,10.70
2023-03-06T15:12:52.212Z,11.63
2023-03-06T15:15:19.757Z,10.60
2023-03-06T15:17:47.299Z,10.97
2023-03-06T15:20:39.515Z,10.47
2023-03-06T15:23:22.200Z,10.40
2023-03-06T15:25:49.779Z,10.50
2023-03-06T15:28:23.717Z,10.40
2023-03-06T15:31:06.044Z,13.20
2023-03-06T15:33:33.581Z,11.67
2023-03-06T15:36:04.030Z,11.00
2023-03-06T15:38:40.261Z,10.63
2023-03-06T15:41:07.812Z,10.70
2023-03-06T15:43:36.114Z,10.53
2023-03-06T15:46:03.758Z,11.63
2023-03-06T15:48:31.255Z,11.40
2023-03-06T15:50:58.788Z,10.07
2023-03-06T15:53:27.163Z,10.97
2023-03-06T15:55:54.719Z,11.03
2023-03-06T15:58:22.232Z,11.97
2023-03-06T16:00:50.168Z,11.87
2023-03-06T16:03:17.687Z,12.47
2023-03-06T16:05:46.104Z,11.70
2023-03-06T16:08:13.579Z,11.33
2023-03-06T16:10:41.104Z,12.30
2023-03-06T16:13:08.678Z,11.70
2023-03-06T16:15:38.918Z,11.33
2023-03-06T16:18:06.464Z,11.77
2023-03-06T16:20:34.001Z,10.90
2023-03-06T16:23:01.558Z,11.67
2023-03-06T16:25:29.092Z,12.37
2023-03-06T16:27:59.117Z,11.53
2023-03-06T16:30:26.701Z,11.23
2023-03-06T16:32:54.226Z,10.47
2023-03-06T16:35:21.776Z,11.13
2023-03-06T16:37:49.362Z,10.83
2023-03-06T16:40:23.420Z,11.63
2023-03-06T16:42:51.685Z,11.73
2023-03-06T16:45:18.525Z,11.30
2023-03-06T16:47:46.055Z,11.27
2023-03-06T16:50:22.570Z,12.07
2023-03-06T16:52:50.136Z,11.47
2023-03-06T16:55:17.673Z,14.95
2023-03-06T16:57:45.206Z,15.20
2023-03-06T17:00:13.681Z,12.80
2023-03-06T17:02:41.250Z,11.47
2023-03-06T17:05:09.626Z,12.17
2023-03-06T17:07:37.214Z,14.27
2023-03-06T17:10:04.732Z,16.10
2023-03-06T17:12:32.276Z,17.20
2023-03-06T17:15:00.629Z,13.50
2023-03-06T17:17:28.135Z,13.13
2023-03-06T17:19:55.672Z,16.37
2023-03-06T17:22:24.042Z,14.37
2023-03-06T17:24:52.344Z,13.37
2023-03-06T17:27:19.889Z,12.17
2023-03-06T17:29:47.465Z,13.37
2023-03-06T17:32:14.998Z,12.77
2023-03-06T17:34:43.306Z,12.83
2023-03-06T17:37:11.429Z,12.87
2023-03-06T17:39:38.993Z,13.83
2023-03-06T17:42:07.294Z,12.60
2023-03-06T17:44:34.876Z,12.70
2023-03-06T17:47:02.415Z,13.63
2023-03-06T17:49:29.935Z,13.17
2023-03-06T17:51:57.520Z,13.00
2023-03-06T17:54:25.843Z,13.30
2023-03-06T17:57:01.933Z,13.13
2023-03-06T17:59:29.465Z,13.13
2023-03-06T18:01:57.077Z,14.50
2023-03-06T18:04:24.705Z,13.17
2023-03-06T18:06:52.216Z,12.43
2023-03-06T18:09:19.745Z,12.20
2023-03-06T18:11:48.123Z,13.97
2023-03-06T18:14:15.641Z,13.60
2023-03-06T18:16:43.171Z,13.73
2023-03-06T18:19:11.303Z,12.00
2023-03-06T18:21:40.425Z,14.27
2023-03-06T18:24:06.427Z,17.85
2023-03-06T18:26:33.996Z,14.17
2023-03-06T18:29:02.288Z,15.83
2023-03-06T18:31:34.487Z,14.47
2023-03-06T18:34:00.379Z,15.47
2023-03-06T18:36:27.914Z,18.02
2023-03-06T18:38:56.233Z,15.50
2023-03-06T18:41:23.798Z,15.13
2023-03-06T18:43:57.364Z,14.47
2023-03-06T18:46:24.900Z,14.30
2023-03-06T18:48:52.472Z,15.60
2023-03-06T18:51:20.781Z,19.12
2023-03-06T18:53:48.296Z,15.90
2023-03-06T18:56:18.461Z,16.67
2023-03-06T18:58:46.009Z,15.60
2023-03-06T19:01:14.338Z,15.80
2023-03-06T19:03:41.897Z,15.10
2023-03-06T19:06:09.494Z,15.13
2023-03-06T19:08:37.007Z,19.55
2023-03-06T19:11:04.609Z,16.60
2023-03-06T19:13:32.913Z,16.83
2023-03-06T19:16:00.437Z,15.60
2023-03-06T19:18:29.170Z,15.83
2023-03-06T19:20:56.710Z,16.13
2023-03-06T19:23:24.227Z,14.47
2023-03-06T19:25:58.691Z,16.60
2023-03-06T19:28:26.219Z,16.53
2023-03-06T19:30:54.529Z,14.73
2023-03-06T19:33:22.105Z,15.80
2023-03-06T19:35:49.744Z,14.43
2023-03-06T19:38:17.175Z,17.00
2023-03-06T19:40:51.644Z,15.33
2023-03-06T19:43:19.162Z,14.70
2023-03-06T19:45:46.721Z,16.40
2023-03-06T19:48:14.543Z,15.73
2023-03-06T19:50:42.074Z,19.35
2023-03-06T19:53:09.599Z,17.77
2023-03-06T19:55:38.738Z,16.50
2023-03-06T19:58:06.254Z,16.03
2023-03-06T20:00:34.575Z,15.73
2023-03-06T20:03:02.239Z,16.07
2023-03-06T20:05:29.754Z,15.27
2023-03-06T20:07:58.075Z,15.87
2023-03-06T20:10:25.653Z,15.07
2023-03-06T20:12:53.174Z,15.30
2023-03-06T20:15:20.693Z,15.70
2023-03-06T20:17:49.042Z,16.33
2023-03-06T20:20:16.603Z,14.93
2023-03-06T20:22:44.104Z,15.77
2023-03-06T20:25:12.503Z,15.30
2023-03-06T20:27:40.045Z,16.33
2023-03-06T20:30:08.152Z,15.63
2023-03-06T20:32:35.448Z,15.63
2023-03-06T20:35:02.952Z,15.60
2023-03-06T20:37:30.468Z,15.50
2023-03-06T20:39:59.400Z,16.97
2023-03-06T20:42:26.935Z,15.70
2023-03-06T20:44:55.245Z,16.13
2023-03-06T20:47:23.313Z,14.13
2023-03-06T20:49:50.845Z,14.63
2023-03-06T20:52:18.422Z,15.60
2023-03-06T20:54:45.984Z,14.33
2023-03-06T20:57:13.500Z,15.03
2023-03-06T20:59:41.809Z,15.53
2023-03-06T21:02:09.662Z,14.17
2023-03-06T21:04:37.228Z,18.58
2023-03-06T21:07:04.732Z,15.53
2023-03-06T21:09:33.068Z,14.90
2023-03-06T21:12:00.635Z,14.60
2023-03-06T21:14:28.209Z,15.30
2023-03-06T21:16:55.806Z,14.97
2023-03-06T21:19:23.345Z,15.17
2023-03-06T21:21:50.901Z,18.62
2023-03-06T21:24:20.938Z,16.80
2023-03-06T21:26:46.012Z,15.17
2023-03-06T21:29:13.556Z,18.75
2023-03-06T21:31:41.186Z,17.73
2023-03-06T21:34:08.662Z,15.50
2023-03-06T21:36:36.200Z,15.00
2023-03-06T21:39:04.535Z,14.50
2023-03-06T21:41:32.090Z,15.27
2023-03-06T21:43:59.649Z,14.70
2023-03-06T21:46:27.184Z,14.57
2023-03-06T21:48:54.707Z,13.47
2023-03-06T21:51:23.014Z,15.10
2023-03-06T21:53:50.603Z,16.10
2023-03-06T21:56:18.137Z,15.03
2023-03-06T21:58:45.663Z,14.50
2023-03-06T22:01:15.113Z,15.50
2023-03-06T22:03:42.632Z,15.23
2023-03-06T22:06:10.946Z,16.10
2023-03-06T22:08:38.520Z,15.27
2023-03-06T22:11:11.731Z,16.43
2023-03-06T22:13:39.272Z,16.67
2023-03-06T22:16:07.288Z,15.40
2023-03-06T22:18:34.783Z,17.67
2023-03-06T22:21:12.088Z,15.87
2023-03-06T22:23:39.626Z,15.87
2023-03-06T22:26:07.183Z,21.55
2023-03-06T22:28:34.811Z,17.40
2023-03-06T22:31:08.099Z,15.80
2023-03-06T22:33:36.387Z,17.13
2023-03-06T22:36:04.087Z,17.57
2023-03-06T22:38:31.486Z,17.13
2023-03-06T22:40:59.776Z,16.80
2023-03-06T22:43:27.340Z,17.87
2023-03-06T22:45:54.899Z,16.63
2023-03-06T22:48:23.209Z,17.23
2023-03-06T22:50:50.769Z,18.17
2023-03-06T22:53:18.327Z,17.43
2023-03-06T22:55:45.877Z,17.70
2023-03-06T22:58:13.521Z,22.48
2023-03-06T23:00:41.055Z,18.43
2023-03-06T23:03:09.350Z,17.23
2023-03-06T23:05:37.222Z,17.23
2023-03-06T23:08:04.758Z,16.50
2023-03-06T23:10:33.062Z,18.33
2023-03-06T23:13:00.645Z,16.77
2023-03-06T23:15:28.208Z,16.17
2023-03-06T23:17:55.747Z,16.20
2023-03-06T23:20:23.312Z,16.47
2023-03-06T23:22:50.837Z,15.80
2023-03-06T23:25:19.158Z,15.50
2023-03-06T23:27:46.753Z,14.83
2023-03-06T23:30:14.312Z,15.20
2023-03-06T23:32:43.388Z,19.60
2023-03-06T23:35:09.790Z,16.43
2023-03-06T23:37:37.332Z,15.60
2023-03-06T23:40:05.845Z,14.83
2023-03-06T23:42:33.418Z,15.00
2023-03-06T23:45:00.959Z,14.97
2023-03-06T23:47:28.503Z,14.93
2023-03-06T23:49:56.094Z,14.93
2023-03-06T23:52:23.622Z,13.93
2023-03-06T23:54:51.176Z,14.40
2023-03-06T23:57:18.761Z,14.00
2023-03-06T23:59:46.295Z,14.73
